Time,TemperatureF,DewpointF,PressureIn,WindDirection,WindDirectionDegrees,WindSpeedMPH,WindSpeedGustMPH,Humidity,HourlyPrecipIn,Conditions,Clouds,dailyrainin,SoftwareType,DateUTC
2013-02-04 00:13:00,19.3,15.0,29.73,West,263,0.0,3.0,84,0.00,,,0.00,weatherlink.com 1.10,2013-02-04 05:13:00,
2013-02-04 00:28:00,18.8,15.0,29.73,West,273,0.0,4.0,84,0.00,,,0.00,weatherlink.com 1.10,2013-02-04 05:28:00,
2013-02-04 00:43:00,18.8,14.0,29.73,SSW,205,0.0,5.0,82,0.00,,,0.00,weatherlink.com 1.10,2013-02-04 05:43:00,
2013-02-04 00:58:00,18.7,14.0,29.73,West,266,3.0,5.0,82,0.00,,,0.00,weatherlink.com 1.10,2013-02-04 05:58:00,
2013-02-04 01:13:00,18.7,14.0,29.73,West,281,1.0,5.0,80,0.00,,,0.00,weatherlink.com 1.10,2013-02-04 06:13:00,
2013-02-04 01:28:00,18.3,13.0,29.73,West,278,2.0,5.0,81,0.00,,,0.00,weatherlink.com 1.10,2013-02-04 06:28:00,
2013-02-04 01:43:00,18.2,13.0,29.74,NW,304,0.0,5.0,80,0.00,,,0.00,weatherlink.com 1.10,2013-02-04 06:43:00,
2013-02-04 01:58:00,18.5,13.0,29.73,WNW,302,4.0,6.0,78,0.00,,,0.00,weatherlink.com 1.10,2013-02-04 06:58:00,
2013-02-04 02:13:00,18.5,13.0,29.73,WNW,287,2.0,7.0,78,0.00,,,0.00,weatherlink.com 1.10,2013-02-04 07:13:00,
2013-02-04 02:28:00,18.3,12.0,29.73,West,260,2.0,5.0,77,0.00,,,0.00,weatherlink.com 1.10,2013-02-04 07:28:00,
2013-02-04 02:43:00,18.0,12.0,29.73,West,273,2.0,5.0,78,0.00,,,0.00,weatherlink.com 1.10,2013-02-04 07:43:00,
2013-02-04 02:58:00,17.6,12.0,29.72,WSW,245,2.0,5.0,78,0.00,,,0.00,weatherlink.com 1.10,2013-02-04 07:58:00,
2013-02-04 03:13:00,17.8,12.0,29.72,West,276,0.0,6.0,77,0.00,,,0.00,weatherlink.com 1.10,2013-02-04 08:13:00,
2013-02-04 03:28:00,18.1,12.0,29.72,WSW,242,0.0,7.0,76,0.00,,,0.00,weatherlink.com 1.10,2013-02-04 08:28:00,
2013-02-04 03:44:00,17.9,12.0,29.72,NW,308,2.0,5.0,76,0.00,,,0.00,weatherlink.com 1.10,2013-02-04 08:44:00,
2013-02-04 03:58:00,18.1,12.0,29.72,WSW,238,1.0,7.0,76,0.00,,,0.00,weatherlink.com 1.10,2013-02-04 08:58:00,
2013-02-04 04:13:00,18.5,12.0,29.72,WNW,284,5.0,8.0,76,0.00,,,0.00,weatherlink.com 1.10,2013-02-04 09:13:00,
2013-02-04 04:28:00,18.5,12.0,29.73,SW,218,6.0,8.0,76,0.00,,,0.00,weatherlink.com 1.10,2013-02-04 09:28:00,
2013-02-04 04:43:00,18.0,12.0,29.73,WNW,282,3.0,10.0,77,0.00,,,0.00,weatherlink.com 1.10,2013-02-04 09:43:00,
2013-02-04 04:59:00,17.8,12.0,29.73,WSW,250,5.0,9.0,78,0.00,,,0.00,weatherlink.com 1.10,2013-02-04 09:59:00,
2013-02-04 05:14:00,17.6,12.0,29.73,West,281,4.0,10.0,79,0.00,,,0.00,weatherlink.com 1.10,2013-02-04 10:14:00,
2013-02-04 05:28:00,17.6,12.0,29.73,WNW,286,5.0,11.0,79,0.00,,,0.00,weatherlink.com 1.10,2013-02-04 10:28:00,
2013-02-04 05:44:00,17.2,12.0,29.74,WNW,284,2.0,8.0,80,0.00,,,0.00,weatherlink.com 1.10,2013-02-04 10:44:00,
2013-02-04 05:59:00,17.2,12.0,29.74,WNW,285,3.0,7.0,80,0.00,,,0.00,weatherlink.com 1.10,2013-02-04 10:59:00,
2013-02-04 06:14:00,16.9,12.0,29.75,West,262,1.0,9.0,80,0.00,,,0.00,weatherlink.com 1.10,2013-02-04 11:14:00,
2013-02-04 06:29:00,16.7,12.0,29.75,West,275,4.0,8.0,81,0.00,,,0.00,weatherlink.com 1.10,2013-02-04 11:29:00,
2013-02-04 06:44:00,16.7,12.0,29.76,West,278,3.0,9.0,81,0.00,,,0.00,weatherlink.com 1.10,2013-02-04 11:44:00,
2013-02-04 06:59:00,16.1,12.0,29.76,WNW,283,2.0,7.0,82,0.00,,,0.00,weatherlink.com 1.10,2013-02-04 11:59:00,
2013-02-04 07:14:00,16.0,11.0,29.76,WNW,290,1.0,9.0,82,0.00,,,0.00,weatherlink.com 1.10,2013-02-04 12:14:00,
2013-02-04 07:29:00,15.9,12.0,29.76,WNW,290,2.0,7.0,83,0.00,,,0.00,weatherlink.com 1.10,2013-02-04 12:29:00,
2013-02-04 07:44:00,16.8,12.0,29.76,WSW,240,1.0,6.0,80,0.00,,,0.00,weatherlink.com 1.10,2013-02-04 12:44:00,
2013-02-04 07:59:00,17.5,12.0,29.77,West,279,2.0,6.0,78,0.00,,,0.00,weatherlink.com 1.10,2013-02-04 12:59:00,
2013-02-04 08:14:00,18.8,12.0,29.77,West,269,5.0,10.0,75,0.00,,,0.00,weatherlink.com 1.10,2013-02-04 13:14:00,
2013-02-04 08:29:00,19.0,11.0,29.77,West,279,3.0,16.0,72,0.00,,,0.00,weatherlink.com 1.10,2013-02-04 13:29:00,
2013-02-04 08:44:00,19.8,8.0,29.77,WSW,252,8.0,22.0,61,0.00,,,0.00,weatherlink.com 1.10,2013-02-04 13:44:00,
2013-02-04 08:59:00,19.7,9.0,29.77,NNW,333,5.0,23.0,62,0.00,,,0.00,weatherlink.com 1.10,2013-02-04 13:59:00,
2013-02-04 09:14:00,20.2,9.0,29.78,WNW,300,9.0,18.0,61,0.00,,,0.00,weatherlink.com 1.10,2013-02-04 14:14:00,
2013-02-04 09:29:00,20.5,9.0,29.78,WNW,285,6.0,17.0,61,0.00,,,0.00,weatherlink.com 1.10,2013-02-04 14:29:00,
2013-02-04 09:44:00,21.6,10.0,29.77,NW,312,9.0,16.0,61,0.00,,,0.00,weatherlink.com 1.10,2013-02-04 14:44:00,
2013-02-04 09:59:00,22.4,10.0,29.77,West,260,4.0,14.0,58,0.00,,,0.00,weatherlink.com 1.10,2013-02-04 14:59:00,
2013-02-04 10:14:00,23.0,8.0,29.76,West,270,8.0,20.0,54,0.00,,,0.00,weatherlink.com 1.10,2013-02-04 15:14:00,
2013-02-04 10:29:00,21.9,6.0,29.76,West,274,13.0,23.0,50,0.00,,,0.00,weatherlink.com 1.10,2013-02-04 15:29:00,
2013-02-04 10:44:00,21.7,6.0,29.77,WSW,257,10.0,19.0,52,0.00,,,0.00,weatherlink.com 1.10,2013-02-04 15:44:00,
2013-02-04 10:59:00,21.8,5.0,29.77,West,261,9.0,19.0,49,0.00,,,0.00,weatherlink.com 1.10,2013-02-04 15:59:00,
2013-02-04 11:14:00,23.7,6.0,29.77,West,274,8.0,20.0,47,0.00,,,0.00,weatherlink.com 1.10,2013-02-04 16:14:00,
2013-02-04 11:29:00,24.3,6.0,29.76,NW,314,15.0,20.0,45,0.00,,,0.00,weatherlink.com 1.10,2013-02-04 16:29:00,
2013-02-04 11:44:00,23.6,5.0,29.76,WNW,288,8.0,21.0,46,0.00,,,0.00,weatherlink.com 1.10,2013-02-04 16:44:00,
2013-02-04 11:59:00,23.7,6.0,29.75,West,281,10.0,16.0,47,0.00,,,0.00,weatherlink.com 1.10,2013-02-04 16:59:00,
2013-02-04 12:15:00,23.0,5.0,29.75,West,264,6.0,19.0,47,0.00,,,0.00,weatherlink.com 1.10,2013-02-04 17:15:00,
2013-02-04 12:29:00,22.9,5.0,29.75,WSW,243,10.0,21.0,47,0.00,,,0.00,weatherlink.com 1.10,2013-02-04 17:29:00,
2013-02-04 12:44:00,24.8,6.0,29.75,WNW,290,6.0,17.0,45,0.00,,,0.00,weatherlink.com 1.10,2013-02-04 17:44:00,
2013-02-04 12:59:00,24.1,4.0,29.75,WNW,289,4.0,24.0,42,0.00,,,0.00,weatherlink.com 1.10,2013-02-04 17:59:00,
2013-02-04 13:14:00,23.6,6.0,29.76,WSW,253,7.0,16.0,47,0.00,,,0.00,weatherlink.com 1.10,2013-02-04 18:14:00,
2013-02-04 13:29:00,23.8,7.0,29.75,SW,221,7.0,17.0,48,0.00,,,0.00,weatherlink.com 1.10,2013-02-04 18:29:00,
2013-02-04 13:45:00,23.4,8.0,29.76,South,179,4.0,20.0,51,0.00,,,0.00,weatherlink.com 1.10,2013-02-04 18:45:00,
2013-02-04 13:59:00,23.4,7.0,29.75,NW,311,7.0,17.0,50,0.00,,,0.00,weatherlink.com 1.10,2013-02-04 18:59:00,
2013-02-04 14:15:00,23.7,6.0,29.75,West,269,6.0,15.0,47,0.00,,,0.00,weatherlink.com 1.10,2013-02-04 19:15:00,
2013-02-04 14:30:00,23.4,7.0,29.76,West,264,8.0,20.0,50,0.00,,,0.00,weatherlink.com 1.10,2013-02-04 19:30:00,
2013-02-04 14:45:00,23.6,5.0,29.77,SW,218,8.0,20.0,44,0.00,,,0.00,weatherlink.com 1.10,2013-02-04 19:45:00,
2013-02-04 15:00:00,23.2,5.0,29.77,West,281,9.0,19.0,45,0.00,,,0.00,weatherlink.com 1.10,2013-02-04 20:00:00,
2013-02-04 15:15:00,22.8,4.0,29.78,West,260,9.0,19.0,45,0.00,,,0.00,weatherlink.com 1.10,2013-02-04 20:15:00,
2013-02-04 15:30:00,22.4,4.0,29.78,SW,228,7.0,18.0,45,0.00,,,0.00,weatherlink.com 1.10,2013-02-04 20:30:00,
2013-02-04 15:45:00,22.1,4.0,29.78,WNW,297,8.0,14.0,45,0.00,,,0.00,weatherlink.com 1.10,2013-02-04 20:45:00,
2013-02-04 16:00:00,22.3,4.0,29.78,WNW,284,3.0,18.0,46,0.00,,,0.00,weatherlink.com 1.10,2013-02-04 21:00:00,
2013-02-04 16:15:00,22.0,4.0,29.79,WSW,256,14.0,20.0,47,0.00,,,0.00,weatherlink.com 1.10,2013-02-04 21:15:00,
2013-02-04 16:30:00,21.6,6.0,29.79,WNW,282,14.0,15.0,51,0.00,,,0.00,weatherlink.com 1.10,2013-02-04 21:30:00,
2013-02-04 16:45:00,21.4,7.0,29.79,SW,228,6.0,16.0,53,0.00,,,0.00,weatherlink.com 1.10,2013-02-04 21:45:00,
2013-02-04 17:00:00,21.1,7.0,29.80,WNW,293,11.0,13.0,55,0.00,,,0.00,weatherlink.com 1.10,2013-02-04 22:00:00,
2013-02-04 17:15:00,20.9,7.0,29.80,WNW,302,3.0,10.0,56,0.00,,,0.00,weatherlink.com 1.10,2013-02-04 22:15:00,
2013-02-04 17:30:00,20.5,7.0,29.81,NW,307,4.0,11.0,56,0.00,,,0.00,weatherlink.com 1.10,2013-02-04 22:30:00,
2013-02-04 17:45:00,20.1,7.0,29.82,WNW,300,5.0,14.0,56,0.00,,,0.00,weatherlink.com 1.10,2013-02-04 22:45:00,
2013-02-04 18:00:00,19.8,6.0,29.82,WNW,293,2.0,12.0,56,0.00,,,0.00,weatherlink.com 1.10,2013-02-04 23:00:00,
2013-02-04 18:15:00,19.3,6.0,29.83,WSW,241,6.0,12.0,57,0.00,,,0.00,weatherlink.com 1.10,2013-02-04 23:15:00,
2013-02-04 18:30:00,19.1,6.0,29.84,West,259,4.0,13.0,57,0.00,,,0.00,weatherlink.com 1.10,2013-02-04 23:30:00,
2013-02-04 18:45:00,18.9,6.0,29.83,West,269,6.0,13.0,58,0.00,,,0.00,weatherlink.com 1.10,2013-02-04 23:45:00,
2013-02-04 19:00:00,18.5,6.0,29.84,WNW,297,4.0,12.0,59,0.00,,,0.00,weatherlink.com 1.10,2013-02-05 00:00:00,
2013-02-04 19:15:00,18.5,5.0,29.84,WSW,245,7.0,15.0,57,0.00,,,0.00,weatherlink.com 1.10,2013-02-05 00:15:00,
2013-02-04 19:30:00,18.3,4.0,29.85,West,278,10.0,12.0,54,0.00,,,0.00,weatherlink.com 1.10,2013-02-05 00:30:00,
2013-02-04 19:45:00,18.2,4.0,29.85,NW,320,6.0,15.0,53,0.00,,,0.00,weatherlink.com 1.10,2013-02-05 00:45:00,
2013-02-04 20:00:00,18.0,4.0,29.86,WNW,284,1.0,16.0,54,0.00,,,0.00,weatherlink.com 1.10,2013-02-05 01:00:00,
2013-02-04 20:15:00,17.8,4.0,29.86,WNW,294,3.0,14.0,54,0.00,,,0.00,weatherlink.com 1.10,2013-02-05 01:15:00,
2013-02-04 20:30:00,17.8,3.0,29.87,WNW,286,2.0,16.0,53,0.00,,,0.00,weatherlink.com 1.10,2013-02-05 01:30:00,
2013-02-04 20:45:00,17.4,3.0,29.88,West,263,3.0,9.0,54,0.00,,,0.00,weatherlink.com 1.10,2013-02-05 01:45:00,
2013-02-04 21:00:00,17.1,3.0,29.88,WNW,293,2.0,13.0,55,0.00,,,0.00,weatherlink.com 1.10,2013-02-05 02:00:00,
2013-02-04 21:16:00,16.7,3.0,29.88,WSW,257,7.0,9.0,56,0.00,,,0.00,weatherlink.com 1.10,2013-02-05 02:16:00,
2013-02-04 21:30:00,16.5,4.0,29.88,NNW,342,7.0,9.0,57,0.00,,,0.00,weatherlink.com 1.10,2013-02-05 02:30:00,
2013-02-04 21:46:00,16.4,3.0,29.89,WSW,255,5.0,11.0,56,0.00,,,0.00,weatherlink.com 1.10,2013-02-05 02:46:00,
2013-02-04 22:00:00,16.3,3.0,29.89,West,277,4.0,10.0,57,0.00,,,0.00,weatherlink.com 1.10,2013-02-05 03:00:00,
2013-02-04 22:15:00,16.0,4.0,29.89,South,186,2.0,8.0,58,0.00,,,0.00,weatherlink.com 1.10,2013-02-05 03:15:00,
2013-02-04 22:30:00,16.0,4.0,29.89,WSW,252,1.0,12.0,58,0.00,,,0.00,weatherlink.com 1.10,2013-02-05 03:30:00,
2013-02-04 22:45:00,15.6,4.0,29.89,WNW,286,4.0,10.0,60,0.00,,,0.00,weatherlink.com 1.10,2013-02-05 03:45:00,
2013-02-04 23:01:00,15.5,4.0,29.89,SW,224,2.0,9.0,60,0.00,,,0.00,weatherlink.com 1.10,2013-02-05 04:01:00,
2013-02-04 23:15:00,15.2,4.0,29.90,SSE,162,0.0,6.0,61,0.00,,,0.00,weatherlink.com 1.10,2013-02-05 04:15:00,
2013-02-04 23:31:00,14.9,4.0,29.91,West,275,2.0,7.0,62,0.00,,,0.00,weatherlink.com 1.10,2013-02-05 04:31:00,
2013-02-04 23:45:00,14.9,4.0,29.91,WSW,256,5.0,9.0,62,0.00,,,0.00,weatherlink.com 1.10,2013-02-05 04:45:00,